Pagina principale
METAR-TAF:

METAR-TAF

Aeroporti :

Messina, Italia

latitudine: 38-12N, longitudine: 015-33E, altezza: 59 m

Osservazione

Il bollettino è stato emesso 1 ora e 7 minuti fa, alle 08:55 UTC
Vento 8 kt da sud/sud-ovest
Temperature 14°C
Umidità 72%
Pressione 1013 hPa
Visibilità 10 km o più
Poco nuvoloso ad un'altezza di 3000 ft

METAR: LICF 090855Z 21008KT 9999 FEW030 14/09 Q1013 RMK SCT SCT200 QUK 1 QUL 0 VIS MAR 16 KM MON LIB NC VIS MIN 9999

Ora: 11:02 (10:02 UTC)


TAF: mancante

Osservazioni e previsioni meteorologiche di più di 4000 aeroporti (messaggi METAR e TAF).

Le stazioni disponibili sono rappresentate dai dischi gialli e rossi sulla carta.

Puntare il mouse per vedere il nome della stazione.

Clicca sopra per visualizzare le osservazioni e previsioni meteorologiche.

Per cambiare la mappa : fare clic sui pulsanti verdi con una croce nera per ingrandire, il pulsante verde con un trattino per diminuire, o sulla freccia verde per le mappe adiacenti.


METAR-TAF: